sensor_id;sensor_type;location;lat;lon;timestamp;P1;durP1;ratioP1;P2;durP2;ratioP2
11111;SDS011;5609;49.466;8.468;2023-03-14T00:01:19;0.93;;;0.87;;
11111;SDS011;5609;49.466;8.468;2023-03-14T00:03:46;1.20;;;0.97;;
11111;SDS011;5609;49.466;8.468;2023-03-14T00:06:13;1.90;;;1.13;;
11111;SDS011;5609;49.466;8.468;2023-03-14T00:08:40;0.83;;;0.67;;
11111;SDS011;5609;49.466;8.468;2023-03-14T00:11:09;1.50;;;0.90;;
11111;SDS011;5609;49.466;8.468;2023-03-14T00:13:37;1.43;;;0.80;;
11111;SDS011;5609;49.466;8.468;2023-03-14T00:16:04;1.83;;;0.90;;
11111;SDS011;5609;49.466;8.468;2023-03-14T00:18:33;1.60;;;0.70;;
11111;SDS011;5609;49.466;8.468;2023-03-14T00:21:01;1.80;;;0.90;;
11111;SDS011;5609;49.466;8.468;2023-03-14T00:23:30;2.00;;;1.00;;
11111;SDS011;5609;49.466;8.468;2023-03-14T00:25:58;2.27;;;0.87;;
11111;SDS011;5609;49.466;8.468;2023-03-14T00:28:27;2.00;;;1.00;;
11111;SDS011;5609;49.466;8.468;2023-03-14T00:30:53;1.13;;;0.83;;
11111;SDS011;5609;49.466;8.468;2023-03-14T00:33:20;2.40;;;0.93;;
11111;SDS011;5609;49.466;8.468;2023-03-14T00:35:52;1.13;;;0.80;;
11111;SDS011;5609;49.466;8.468;2023-03-14T00:38:19;2.03;;;0.70;;
11111;SDS011;5609;49.466;8.468;2023-03-14T00:40:46;1.77;;;1.03;;
11111;SDS011;5609;49.466;8.468;2023-03-14T00:43:13;1.30;;;1.03;;
11111;SDS011;5609;49.466;8.468;2023-03-14T00:45:41;2.10;;;0.90;;
11111;SDS011;5609;49.466;8.468;2023-03-14T00:48:08;1.83;;;0.90;;
11111;SDS011;5609;49.466;8.468;2023-03-14T00:50:34;1.20;;;0.90;;
11111;SDS011;5609;49.466;8.468;2023-03-14T00:53:01;1.80;;;1.10;;
11111;SDS011;5609;49.466;8.468;2023-03-14T00:55:28;1.73;;;0.90;;
11111;SDS011;5609;49.466;8.468;2023-03-14T00:57:54;1.17;;;0.80;;
11111;SDS011;5609;49.466;8.468;2023-03-14T01:00:21;2.27;;;1.00;;
11111;SDS011;5609;49.466;8.468;2023-03-14T01:02:50;2.43;;;1.20;;
11111;SDS011;5609;49.466;8.468;2023-03-14T01:05:16;1.10;;;1.00;;
11111;SDS011;5609;49.466;8.468;2023-03-14T01:07:43;1.47;;;1.30;;
11111;SDS011;5609;49.466;8.468;2023-03-14T01:10:10;1.57;;;1.20;;
11111;SDS011;5609;49.466;8.468;2023-03-14T01:12:37;0.80;;;0.80;;
11111;SDS011;5609;49.466;8.468;2023-03-14T01:15:04;2.07;;;1.30;;
11111;SDS011;5609;49.466;8.468;2023-03-14T01:17:31;1.17;;;0.90;;
11111;SDS011;5609;49.466;8.468;2023-03-14T01:20:00;1.30;;;0.90;;
11111;SDS011;5609;49.466;8.468;2023-03-14T01:22:29;1.07;;;0.90;;
11111;SDS011;5609;49.466;8.468;2023-03-14T01:24:56;2.60;;;1.07;;
11111;SDS011;5609;49.466;8.468;2023-03-14T01:27:23;2.27;;;1.00;;
11111;SDS011;5609;49.466;8.468;2023-03-14T01:29:50;1.97;;;1.10;;
11111;SDS011;5609;49.466;8.468;2023-03-14T01:32:17;1.17;;;0.87;;
11111;SDS011;5609;49.466;8.468;2023-03-14T01:34:43;1.43;;;1.03;;
11111;SDS011;5609;49.466;8.468;2023-03-14T01:37:12;1.90;;;1.13;;
11111;SDS011;5609;49.466;8.468;2023-03-14T01:39:38;1.07;;;0.93;;
11111;SDS011;5609;49.466;8.468;2023-03-14T01:42:05;0.93;;;0.80;;
11111;SDS011;5609;49.466;8.468;2023-03-14T01:44:46;1.37;;;1.00;;
11111;SDS011;5609;49.466;8.468;2023-03-14T01:47:14;1.20;;;1.10;;
11111;SDS011;5609;49.466;8.468;2023-03-14T01:49:41;1.40;;;1.30;;
11111;SDS011;5609;49.466;8.468;2023-03-14T01:52:10;2.13;;;1.20;;
11111;SDS011;5609;49.466;8.468;2023-03-14T01:54:40;2.53;;;1.30;;
11111;SDS011;5609;49.466;8.468;2023-03-14T01:57:10;1.10;;;1.00;;
11111;SDS011;5609;49.466;8.468;2023-03-14T01:59:40;1.17;;;1.03;;
11111;SDS011;5609;49.466;8.468;2023-03-14T02:02:11;1.70;;;1.30;;
11111;SDS011;5609;49.466;8.468;2023-03-14T02:04:39;1.30;;;0.90;;
11111;SDS011;5609;49.466;8.468;2023-03-14T02:07:09;1.63;;;1.17;;
11111;SDS011;5609;49.466;8.468;2023-03-14T02:09:40;2.03;;;1.00;;
11111;SDS011;5609;49.466;8.468;2023-03-14T02:12:09;1.43;;;1.30;;
11111;SDS011;5609;49.466;8.468;2023-03-14T02:14:37;1.63;;;1.20;;
11111;SDS011;5609;49.466;8.468;2023-03-14T02:17:05;1.43;;;1.10;;
11111;SDS011;5609;49.466;8.468;2023-03-14T02:19:36;3.53;;;1.10;;
11111;SDS011;5609;49.466;8.468;2023-03-14T02:22:16;2.37;;;1.00;;
11111;SDS011;5609;49.466;8.468;2023-03-14T02:24:46;1.67;;;0.97;;
11111;SDS011;5609;49.466;8.468;2023-03-14T02:27:21;1.93;;;1.20;;
11111;SDS011;5609;49.466;8.468;2023-03-14T02:29:49;1.40;;;0.97;;
11111;SDS011;5609;49.466;8.468;2023-03-14T02:32:19;2.00;;;0.90;;
11111;SDS011;5609;49.466;8.468;2023-03-14T02:34:48;1.97;;;1.03;;
11111;SDS011;5609;49.466;8.468;2023-03-14T02:37:19;1.73;;;0.97;;
11111;SDS011;5609;49.466;8.468;2023-03-14T02:39:48;2.97;;;1.07;;
11111;SDS011;5609;49.466;8.468;2023-03-14T02:42:15;1.70;;;0.87;;
11111;SDS011;5609;49.466;8.468;2023-03-14T02:44:50;1.67;;;0.80;;
11111;SDS011;5609;49.466;8.468;2023-03-14T02:47:20;1.03;;;0.70;;
11111;SDS011;5609;49.466;8.468;2023-03-14T02:49:51;1.20;;;0.93;;
11111;SDS011;5609;49.466;8.468;2023-03-14T02:52:22;1.77;;;0.90;;
11111;SDS011;5609;49.466;8.468;2023-03-14T02:54:49;1.83;;;1.00;;
11111;SDS011;5609;49.466;8.468;2023-03-14T02:57:15;2.90;;;0.90;;
11111;SDS011;5609;49.466;8.468;2023-03-14T02:59:42;2.07;;;1.00;;
11111;SDS011;5609;49.466;8.468;2023-03-14T03:02:10;2.33;;;1.20;;
11111;SDS011;5609;49.466;8.468;2023-03-14T03:04:37;2.83;;;1.10;;
11111;SDS011;5609;49.466;8.468;2023-03-14T03:07:03;1.47;;;1.03;;
11111;SDS011;5609;49.466;8.468;2023-03-14T03:09:30;1.83;;;1.00;;
11111;SDS011;5609;49.466;8.468;2023-03-14T03:11:57;2.43;;;1.10;;
11111;SDS011;5609;49.466;8.468;2023-03-14T03:14:24;2.23;;;1.13;;
11111;SDS011;5609;49.466;8.468;2023-03-14T03:16:51;2.80;;;1.10;;
11111;SDS011;5609;49.466;8.468;2023-03-14T03:19:19;2.13;;;1.20;;
11111;SDS011;5609;49.466;8.468;2023-03-14T03:21:45;3.10;;;1.27;;
11111;SDS011;5609;49.466;8.468;2023-03-14T03:24:13;1.97;;;1.10;;
11111;SDS011;5609;49.466;8.468;2023-03-14T03:26:40;1.90;;;1.07;;
11111;SDS011;5609;49.466;8.468;2023-03-14T03:29:06;2.60;;;1.20;;
11111;SDS011;5609;49.466;8.468;2023-03-14T03:31:33;1.93;;;1.00;;
11111;SDS011;5609;49.466;8.468;2023-03-14T03:34:02;3.40;;;1.40;;
11111;SDS011;5609;49.466;8.468;2023-03-14T03:36:30;2.43;;;1.20;;
11111;SDS011;5609;49.466;8.468;2023-03-14T03:38:57;2.73;;;1.30;;
11111;SDS011;5609;49.466;8.468;2023-03-14T03:41:24;1.90;;;1.10;;
11111;SDS011;5609;49.466;8.468;2023-03-14T03:43:50;2.83;;;1.23;;
11111;SDS011;5609;49.466;8.468;2023-03-14T03:46:19;2.77;;;1.07;;
11111;SDS011;5609;49.466;8.468;2023-03-14T03:48:45;2.37;;;1.10;;
11111;SDS011;5609;49.466;8.468;2023-03-14T03:51:12;3.60;;;1.40;;
11111;SDS011;5609;49.466;8.468;2023-03-14T03:53:41;2.70;;;1.20;;
11111;SDS011;5609;49.466;8.468;2023-03-14T03:56:08;2.27;;;1.17;;
11111;SDS011;5609;49.466;8.468;2023-03-14T03:58:35;3.03;;;1.23;;
11111;SDS011;5609;49.466;8.468;2023-03-14T04:01:04;3.07;;;1.30;;
11111;SDS011;5609;49.466;8.468;2023-03-14T04:03:31;2.97;;;1.47;;
11111;SDS011;5609;49.466;8.468;2023-03-14T04:05:58;1.83;;;1.20;;
11111;SDS011;5609;49.466;8.468;2023-03-14T04:08:26;3.00;;;1.37;;
11111;SDS011;5609;49.466;8.468;2023-03-14T04:10:55;3.23;;;1.30;;
11111;SDS011;5609;49.466;8.468;2023-03-14T04:13:23;1.97;;;1.03;;
11111;SDS011;5609;49.466;8.468;2023-03-14T04:15:49;2.97;;;1.23;;
11111;SDS011;5609;49.466;8.468;2023-03-14T04:18:17;1.10;;;1.00;;
11111;SDS011;5609;49.466;8.468;2023-03-14T04:20:44;2.60;;;1.03;;
11111;SDS011;5609;49.466;8.468;2023-03-14T04:23:11;4.00;;;1.43;;
11111;SDS011;5609;49.466;8.468;2023-03-14T04:25:37;3.37;;;1.30;;
11111;SDS011;5609;49.466;8.468;2023-03-14T04:28:05;3.07;;;1.20;;
11111;SDS011;5609;49.466;8.468;2023-03-14T04:30:32;1.90;;;1.20;;
11111;SDS011;5609;49.466;8.468;2023-03-14T04:32:59;1.53;;;1.00;;
11111;SDS011;5609;49.466;8.468;2023-03-14T04:35:26;4.33;;;1.20;;
11111;SDS011;5609;49.466;8.468;2023-03-14T04:37:53;1.57;;;1.20;;
11111;SDS011;5609;49.466;8.468;2023-03-14T04:40:19;3.43;;;1.20;;
11111;SDS011;5609;49.466;8.468;2023-03-14T04:42:46;2.40;;;1.20;;
11111;SDS011;5609;49.466;8.468;2023-03-14T04:45:14;2.10;;;1.40;;
11111;SDS011;5609;49.466;8.468;2023-03-14T04:47:41;2.27;;;1.10;;
11111;SDS011;5609;49.466;8.468;2023-03-14T04:50:09;3.20;;;1.23;;
11111;SDS011;5609;49.466;8.468;2023-03-14T04:52:36;2.67;;;1.17;;
11111;SDS011;5609;49.466;8.468;2023-03-14T04:55:03;2.57;;;1.03;;
11111;SDS011;5609;49.466;8.468;2023-03-14T04:57:31;1.90;;;1.00;;
11111;SDS011;5609;49.466;8.468;2023-03-14T04:59:57;2.93;;;1.20;;
11111;SDS011;5609;49.466;8.468;2023-03-14T05:02:25;2.63;;;1.20;;
11111;SDS011;5609;49.466;8.468;2023-03-14T05:04:52;2.20;;;1.10;;
11111;SDS011;5609;49.466;8.468;2023-03-14T05:07:19;3.20;;;1.40;;
11111;SDS011;5609;49.466;8.468;2023-03-14T05:09:45;2.67;;;1.30;;
11111;SDS011;5609;49.466;8.468;2023-03-14T05:12:12;2.53;;;1.03;;
11111;SDS011;5609;49.466;8.468;2023-03-14T05:14:39;3.20;;;1.30;;
11111;SDS011;5609;49.466;8.468;2023-03-14T05:17:06;2.30;;;0.87;;
11111;SDS011;5609;49.466;8.468;2023-03-14T05:19:34;3.03;;;1.17;;
11111;SDS011;5609;49.466;8.468;2023-03-14T05:22:02;2.73;;;1.10;;
11111;SDS011;5609;49.466;8.468;2023-03-14T05:24:29;2.47;;;0.90;;
11111;SDS011;5609;49.466;8.468;2023-03-14T05:26:55;1.73;;;1.20;;
11111;SDS011;5609;49.466;8.468;2023-03-14T05:29:22;2.87;;;0.90;;
11111;SDS011;5609;49.466;8.468;2023-03-14T05:31:49;2.77;;;1.10;;
11111;SDS011;5609;49.466;8.468;2023-03-14T05:34:16;3.27;;;1.20;;
11111;SDS011;5609;49.466;8.468;2023-03-14T05:36:44;2.57;;;1.10;;
11111;SDS011;5609;49.466;8.468;2023-03-14T05:39:10;3.63;;;1.00;;
11111;SDS011;5609;49.466;8.468;2023-03-14T05:41:37;2.20;;;1.20;;
11111;SDS011;5609;49.466;8.468;2023-03-14T05:44:04;2.37;;;1.27;;
11111;SDS011;5609;49.466;8.468;2023-03-14T05:46:30;1.83;;;1.03;;
11111;SDS011;5609;49.466;8.468;2023-03-14T05:48:57;1.87;;;1.00;;
11111;SDS011;5609;49.466;8.468;2023-03-14T05:51:24;2.53;;;0.90;;
11111;SDS011;5609;49.466;8.468;2023-03-14T05:53:53;2.57;;;0.87;;
11111;SDS011;5609;49.466;8.468;2023-03-14T05:56:23;2.73;;;0.97;;
11111;SDS011;5609;49.466;8.468;2023-03-14T05:58:49;3.07;;;1.10;;
11111;SDS011;5609;49.466;8.468;2023-03-14T06:01:16;2.50;;;0.93;;
11111;SDS011;5609;49.466;8.468;2023-03-14T06:03:43;2.60;;;1.00;;
11111;SDS011;5609;49.466;8.468;2023-03-14T06:06:09;3.43;;;1.10;;
11111;SDS011;5609;49.466;8.468;2023-03-14T06:08:36;3.23;;;1.20;;
11111;SDS011;5609;49.466;8.468;2023-03-14T06:11:04;3.00;;;1.00;;
11111;SDS011;5609;49.466;8.468;2023-03-14T06:13:32;1.27;;;0.87;;
11111;SDS011;5609;49.466;8.468;2023-03-14T06:15:58;2.03;;;0.87;;
11111;SDS011;5609;49.466;8.468;2023-03-14T06:18:25;3.57;;;1.10;;
11111;SDS011;5609;49.466;8.468;2023-03-14T06:20:53;4.13;;;1.13;;
11111;SDS011;5609;49.466;8.468;2023-03-14T06:23:20;2.63;;;1.03;;
11111;SDS011;5609;49.466;8.468;2023-03-14T06:25:47;3.77;;;1.23;;
11111;SDS011;5609;49.466;8.468;2023-03-14T06:28:15;2.00;;;0.77;;
11111;SDS011;5609;49.466;8.468;2023-03-14T06:30:42;3.70;;;1.17;;
11111;SDS011;5609;49.466;8.468;2023-03-14T06:33:09;2.00;;;1.00;;
11111;SDS011;5609;49.466;8.468;2023-03-14T06:35:36;3.43;;;1.10;;
11111;SDS011;5609;49.466;8.468;2023-03-14T06:38:02;2.93;;;1.00;;
11111;SDS011;5609;49.466;8.468;2023-03-14T06:40:29;2.87;;;0.90;;
11111;SDS011;5609;49.466;8.468;2023-03-14T06:42:56;2.73;;;1.10;;
11111;SDS011;5609;49.466;8.468;2023-03-14T06:45:24;3.10;;;1.00;;
11111;SDS011;5609;49.466;8.468;2023-03-14T06:47:51;2.87;;;1.07;;
11111;SDS011;5609;49.466;8.468;2023-03-14T06:50:18;1.73;;;0.73;;
11111;SDS011;5609;49.466;8.468;2023-03-14T06:52:47;1.70;;;0.90;;
11111;SDS011;5609;49.466;8.468;2023-03-14T06:55:13;2.03;;;0.97;;
11111;SDS011;5609;49.466;8.468;2023-03-14T06:57:41;2.33;;;1.13;;
11111;SDS011;5609;49.466;8.468;2023-03-14T07:00:09;3.67;;;1.17;;
11111;SDS011;5609;49.466;8.468;2023-03-14T07:02:39;2.07;;;0.90;;
11111;SDS011;5609;49.466;8.468;2023-03-14T07:05:06;2.60;;;0.90;;
11111;SDS011;5609;49.466;8.468;2023-03-14T07:07:35;2.97;;;1.10;;
11111;SDS011;5609;49.466;8.468;2023-03-14T07:10:01;5.47;;;0.93;;
11111;SDS011;5609;49.466;8.468;2023-03-14T07:12:28;3.03;;;1.10;;
11111;SDS011;5609;49.466;8.468;2023-03-14T07:14:55;1.70;;;0.70;;
11111;SDS011;5609;49.466;8.468;2023-03-14T07:17:22;2.97;;;1.17;;
11111;SDS011;5609;49.466;8.468;2023-03-14T07:19:50;3.23;;;1.10;;
11111;SDS011;5609;49.466;8.468;2023-03-14T07:22:17;1.83;;;0.90;;
11111;SDS011;5609;49.466;8.468;2023-03-14T07:24:43;3.57;;;1.00;;
11111;SDS011;5609;49.466;8.468;2023-03-14T07:27:10;3.03;;;0.93;;
11111;SDS011;5609;49.466;8.468;2023-03-14T07:29:37;2.37;;;0.93;;
11111;SDS011;5609;49.466;8.468;2023-03-14T07:32:03;3.10;;;1.10;;
11111;SDS011;5609;49.466;8.468;2023-03-14T07:34:31;2.90;;;0.93;;
11111;SDS011;5609;49.466;8.468;2023-03-14T07:36:59;2.10;;;0.77;;
11111;SDS011;5609;49.466;8.468;2023-03-14T07:39:26;2.03;;;0.70;;
11111;SDS011;5609;49.466;8.468;2023-03-14T07:41:53;2.07;;;0.87;;
11111;SDS011;5609;49.466;8.468;2023-03-14T07:44:19;2.43;;;0.97;;
11111;SDS011;5609;49.466;8.468;2023-03-14T07:46:46;1.83;;;1.00;;
11111;SDS011;5609;49.466;8.468;2023-03-14T07:49:13;2.37;;;0.87;;
11111;SDS011;5609;49.466;8.468;2023-03-14T07:51:39;2.00;;;0.90;;
11111;SDS011;5609;49.466;8.468;2023-03-14T07:54:10;2.00;;;0.80;;
11111;SDS011;5609;49.466;8.468;2023-03-14T07:56:37;1.37;;;0.57;;
11111;SDS011;5609;49.466;8.468;2023-03-14T07:59:03;2.03;;;1.03;;
11111;SDS011;5609;49.466;8.468;2023-03-14T08:01:30;3.33;;;1.20;;
11111;SDS011;5609;49.466;8.468;2023-03-14T08:03:57;3.90;;;1.00;;
11111;SDS011;5609;49.466;8.468;2023-03-14T08:06:24;3.87;;;1.10;;
11111;SDS011;5609;49.466;8.468;2023-03-14T08:08:50;1.27;;;0.70;;
11111;SDS011;5609;49.466;8.468;2023-03-14T08:11:19;2.93;;;0.80;;
11111;SDS011;5609;49.466;8.468;2023-03-14T08:13:45;2.97;;;0.87;;
11111;SDS011;5609;49.466;8.468;2023-03-14T08:16:14;3.40;;;1.00;;
11111;SDS011;5609;49.466;8.468;2023-03-14T08:18:42;2.97;;;0.77;;
11111;SDS011;5609;49.466;8.468;2023-03-14T08:21:09;2.27;;;0.63;;
11111;SDS011;5609;49.466;8.468;2023-03-14T08:23:36;3.13;;;1.00;;
11111;SDS011;5609;49.466;8.468;2023-03-14T08:26:02;2.10;;;1.00;;
11111;SDS011;5609;49.466;8.468;2023-03-14T08:28:31;2.50;;;0.93;;
11111;SDS011;5609;49.466;8.468;2023-03-14T08:30:58;1.50;;;0.90;;
11111;SDS011;5609;49.466;8.468;2023-03-14T08:33:25;2.00;;;0.90;;
11111;SDS011;5609;49.466;8.468;2023-03-14T08:35:53;2.20;;;0.80;;
11111;SDS011;5609;49.466;8.468;2023-03-14T08:38:20;0.90;;;0.60;;
11111;SDS011;5609;49.466;8.468;2023-03-14T08:40:47;2.07;;;1.03;;
11111;SDS011;5609;49.466;8.468;2023-03-14T08:43:15;1.83;;;0.57;;
11111;SDS011;5609;49.466;8.468;2023-03-14T08:45:43;1.53;;;0.83;;
11111;SDS011;5609;49.466;8.468;2023-03-14T08:48:10;1.33;;;0.60;;
11111;SDS011;5609;49.466;8.468;2023-03-14T08:50:36;1.63;;;0.80;;
11111;SDS011;5609;49.466;8.468;2023-03-14T08:53:03;1.60;;;0.80;;
11111;SDS011;5609;49.466;8.468;2023-03-14T08:55:30;1.30;;;0.60;;
11111;SDS011;5609;49.466;8.468;2023-03-14T08:57:57;1.30;;;0.67;;
11111;SDS011;5609;49.466;8.468;2023-03-14T09:00:24;1.10;;;0.60;;
11111;SDS011;5609;49.466;8.468;2023-03-14T09:02:52;0.97;;;0.77;;
11111;SDS011;5609;49.466;8.468;2023-03-14T09:05:18;1.73;;;0.67;;
11111;SDS011;5609;49.466;8.468;2023-03-14T09:07:45;1.70;;;0.60;;
11111;SDS011;5609;49.466;8.468;2023-03-14T09:10:12;1.50;;;0.80;;
11111;SDS011;5609;49.466;8.468;2023-03-14T09:12:38;1.20;;;0.60;;
11111;SDS011;5609;49.466;8.468;2023-03-14T09:15:06;3.03;;;0.80;;
11111;SDS011;5609;49.466;8.468;2023-03-14T09:17:33;0.80;;;0.53;;
11111;SDS011;5609;49.466;8.468;2023-03-14T09:20:01;1.33;;;0.43;;
11111;SDS011;5609;49.466;8.468;2023-03-14T09:22:30;0.73;;;0.50;;
11111;SDS011;5609;49.466;8.468;2023-03-14T09:24:57;1.73;;;0.60;;
11111;SDS011;5609;49.466;8.468;2023-03-14T09:27:24;1.10;;;0.47;;
11111;SDS011;5609;49.466;8.468;2023-03-14T09:29:51;2.10;;;0.53;;
11111;SDS011;5609;49.466;8.468;2023-03-14T09:32:17;0.97;;;0.57;;
11111;SDS011;5609;49.466;8.468;2023-03-14T09:34:44;1.17;;;0.50;;
11111;SDS011;5609;49.466;8.468;2023-03-14T09:37:12;1.00;;;0.50;;
11111;SDS011;5609;49.466;8.468;2023-03-14T09:39:40;0.80;;;0.50;;
11111;SDS011;5609;49.466;8.468;2023-03-14T09:42:07;1.50;;;0.40;;
11111;SDS011;5609;49.466;8.468;2023-03-14T09:44:39;0.60;;;0.30;;
11111;SDS011;5609;49.466;8.468;2023-03-14T09:47:13;0.70;;;0.30;;
11111;SDS011;5609;49.466;8.468;2023-03-14T09:49:41;0.87;;;0.30;;
11111;SDS011;5609;49.466;8.468;2023-03-14T09:52:11;1.40;;;0.63;;
11111;SDS011;5609;49.466;8.468;2023-03-14T09:54:43;2.47;;;0.60;;
11111;SDS011;5609;49.466;8.468;2023-03-14T09:57:14;1.03;;;0.50;;
11111;SDS011;5609;49.466;8.468;2023-03-14T09:59:43;1.47;;;0.50;;
11111;SDS011;5609;49.466;8.468;2023-03-14T10:02:13;1.70;;;0.57;;
11111;SDS011;5609;49.466;8.468;2023-03-14T10:04:43;0.80;;;0.53;;
11111;SDS011;5609;49.466;8.468;2023-03-14T10:07:12;0.43;;;0.20;;
11111;SDS011;5609;49.466;8.468;2023-03-14T10:09:44;1.23;;;0.50;;
11111;SDS011;5609;49.466;8.468;2023-03-14T10:12:13;2.07;;;0.60;;
11111;SDS011;5609;49.466;8.468;2023-03-14T10:14:44;0.50;;;0.33;;
11111;SDS011;5609;49.466;8.468;2023-03-14T10:17:13;1.53;;;0.50;;
11111;SDS011;5609;49.466;8.468;2023-03-14T10:19:50;2.93;;;0.60;;
11111;SDS011;5609;49.466;8.468;2023-03-14T10:22:20;0.80;;;0.40;;
11111;SDS011;5609;49.466;8.468;2023-03-14T10:24:51;1.10;;;0.50;;
11111;SDS011;5609;49.466;8.468;2023-03-14T10:27:20;0.33;;;0.23;;
11111;SDS011;5609;49.466;8.468;2023-03-14T10:29:51;0.17;;;0.17;;
11111;SDS011;5609;49.466;8.468;2023-03-14T10:32:21;0.33;;;0.33;;
11111;SDS011;5609;49.466;8.468;2023-03-14T10:35:07;1.90;;;0.40;;
11111;SDS011;5609;49.466;8.468;2023-03-14T10:37:49;0.60;;;0.40;;
11111;SDS011;5609;49.466;8.468;2023-03-14T10:40:18;0.93;;;0.50;;
11111;SDS011;5609;49.466;8.468;2023-03-14T10:42:46;0.80;;;0.33;;
11111;SDS011;5609;49.466;8.468;2023-03-14T10:45:22;1.60;;;0.47;;
11111;SDS011;5609;49.466;8.468;2023-03-14T10:47:57;0.57;;;0.40;;
11111;SDS011;5609;49.466;8.468;2023-03-14T10:50:25;0.90;;;0.40;;
11111;SDS011;5609;49.466;8.468;2023-03-14T10:52:55;0.57;;;0.33;;
11111;SDS011;5609;49.466;8.468;2023-03-14T10:55:23;1.37;;;0.53;;
11111;SDS011;5609;49.466;8.468;2023-03-14T10:57:51;1.00;;;0.40;;
11111;SDS011;5609;49.466;8.468;2023-03-14T11:00:20;0.37;;;0.30;;
11111;SDS011;5609;49.466;8.468;2023-03-14T11:05:34;0.80;;;0.30;;
11111;SDS011;5609;49.466;8.468;2023-03-14T11:08:12;0.77;;;0.30;;
11111;SDS011;5609;49.466;8.468;2023-03-14T11:10:45;1.23;;;0.30;;
11111;SDS011;5609;49.466;8.468;2023-03-14T11:13:19;0.50;;;0.30;;
11111;SDS011;5609;49.466;8.468;2023-03-14T11:15:53;0.93;;;0.40;;
11111;SDS011;5609;49.466;8.468;2023-03-14T11:21:31;1.90;;;0.37;;
11111;SDS011;5609;49.466;8.468;2023-03-14T11:24:08;1.13;;;0.40;;
11111;SDS011;5609;49.466;8.468;2023-03-14T11:26:47;0.40;;;0.20;;
11111;SDS011;5609;49.466;8.468;2023-03-14T11:29:20;1.67;;;0.40;;
11111;SDS011;5609;49.466;8.468;2023-03-14T11:31:52;0.57;;;0.30;;
11111;SDS011;5609;49.466;8.468;2023-03-14T11:34:24;0.60;;;0.30;;
11111;SDS011;5609;49.466;8.468;2023-03-14T11:36:56;0.50;;;0.30;;
11111;SDS011;5609;49.466;8.468;2023-03-14T11:39:29;0.97;;;0.33;;
11111;SDS011;5609;49.466;8.468;2023-03-14T11:42:03;0.80;;;0.80;;
11111;SDS011;5609;49.466;8.468;2023-03-14T11:44:32;1.57;;;1.20;;
11111;SDS011;5609;49.466;8.468;2023-03-14T11:47:02;2.20;;;1.43;;
11111;SDS011;5609;49.466;8.468;2023-03-14T11:49:36;1.73;;;1.30;;
11111;SDS011;5609;49.466;8.468;2023-03-14T11:52:05;3.27;;;1.07;;
11111;SDS011;5609;49.466;8.468;2023-03-14T11:54:40;0.80;;;0.80;;
11111;SDS011;5609;49.466;8.468;2023-03-14T11:57:15;0.73;;;0.73;;
11111;SDS011;5609;49.466;8.468;2023-03-14T11:59:45;0.97;;;0.80;;
11111;SDS011;5609;49.466;8.468;2023-03-14T12:02:20;2.60;;;0.70;;
11111;SDS011;5609;49.466;8.468;2023-03-14T12:04:53;1.20;;;0.87;;
11111;SDS011;5609;49.466;8.468;2023-03-14T12:07:33;1.43;;;0.83;;
11111;SDS011;5609;49.466;8.468;2023-03-14T12:10:09;2.70;;;1.13;;
11111;SDS011;5609;49.466;8.468;2023-03-14T12:12:36;4.60;;;0.90;;
11111;SDS011;5609;49.466;8.468;2023-03-14T12:15:04;4.67;;;1.67;;
11111;SDS011;5609;49.466;8.468;2023-03-14T12:17:34;5.53;;;1.20;;
11111;SDS011;5609;49.466;8.468;2023-03-14T12:20:04;0.70;;;0.70;;
11111;SDS011;5609;49.466;8.468;2023-03-14T12:22:41;2.90;;;0.70;;
11111;SDS011;5609;49.466;8.468;2023-03-14T12:25:15;0.63;;;0.60;;
11111;SDS011;5609;49.466;8.468;2023-03-14T12:30:32;1.00;;;0.43;;
11111;SDS011;5609;49.466;8.468;2023-03-14T12:39:05;0.40;;;0.20;;
11111;SDS011;5609;49.466;8.468;2023-03-14T12:41:46;0.20;;;0.20;;
11111;SDS011;5609;49.466;8.468;2023-03-14T12:44:37;0.70;;;0.50;;
11111;SDS011;5609;49.466;8.468;2023-03-14T12:50:13;0.40;;;0.20;;
11111;SDS011;5609;49.466;8.468;2023-03-14T12:52:45;1.50;;;0.53;;
11111;SDS011;5609;49.466;8.468;2023-03-14T12:55:33;1.00;;;0.53;;
11111;SDS011;5609;49.466;8.468;2023-03-14T12:58:10;0.40;;;0.40;;
11111;SDS011;5609;49.466;8.468;2023-03-14T13:00:39;0.50;;;0.50;;
11111;SDS011;5609;49.466;8.468;2023-03-14T13:03:16;2.30;;;1.00;;
11111;SDS011;5609;49.466;8.468;2023-03-14T13:05:53;1.27;;;0.87;;
11111;SDS011;5609;49.466;8.468;2023-03-14T13:08:33;1.07;;;0.80;;
11111;SDS011;5609;49.466;8.468;2023-03-14T13:11:02;1.30;;;0.90;;
11111;SDS011;5609;49.466;8.468;2023-03-14T13:13:35;1.10;;;1.00;;
11111;SDS011;5609;49.466;8.468;2023-03-14T13:16:09;1.07;;;0.70;;
11111;SDS011;5609;49.466;8.468;2023-03-14T13:18:42;1.33;;;0.90;;
11111;SDS011;5609;49.466;8.468;2023-03-14T13:21:11;1.10;;;0.70;;
11111;SDS011;5609;49.466;8.468;2023-03-14T13:23:40;0.90;;;0.80;;
11111;SDS011;5609;49.466;8.468;2023-03-14T13:26:25;1.27;;;1.10;;
11111;SDS011;5609;49.466;8.468;2023-03-14T13:29:00;2.33;;;1.10;;
11111;SDS011;5609;49.466;8.468;2023-03-14T13:31:35;1.23;;;1.00;;
11111;SDS011;5609;49.466;8.468;2023-03-14T13:34:05;1.87;;;0.90;;
11111;SDS011;5609;49.466;8.468;2023-03-14T13:36:35;1.27;;;0.70;;
11111;SDS011;5609;49.466;8.468;2023-03-14T13:39:02;1.60;;;1.00;;
11111;SDS011;5609;49.466;8.468;2023-03-14T13:41:37;2.57;;;1.07;;
11111;SDS011;5609;49.466;8.468;2023-03-14T13:44:07;4.00;;;1.30;;
11111;SDS011;5609;49.466;8.468;2023-03-14T13:46:37;1.43;;;0.70;;
11111;SDS011;5609;49.466;8.468;2023-03-14T13:49:05;1.10;;;0.70;;
11111;SDS011;5609;49.466;8.468;2023-03-14T13:51:33;1.40;;;0.93;;
11111;SDS011;5609;49.466;8.468;2023-03-14T13:54:00;2.60;;;0.87;;
11111;SDS011;5609;49.466;8.468;2023-03-14T13:56:28;1.63;;;0.83;;
11111;SDS011;5609;49.466;8.468;2023-03-14T13:58:57;1.47;;;0.87;;
11111;SDS011;5609;49.466;8.468;2023-03-14T14:01:26;2.53;;;0.90;;
11111;SDS011;5609;49.466;8.468;2023-03-14T14:03:57;1.20;;;0.70;;
11111;SDS011;5609;49.466;8.468;2023-03-14T14:06:32;1.53;;;0.90;;
11111;SDS011;5609;49.466;8.468;2023-03-14T14:09:02;1.87;;;0.70;;
11111;SDS011;5609;49.466;8.468;2023-03-14T14:11:41;1.80;;;0.73;;
11111;SDS011;5609;49.466;8.468;2023-03-14T14:14:10;1.43;;;0.80;;
11111;SDS011;5609;49.466;8.468;2023-03-14T14:16:43;1.17;;;0.70;;
11111;SDS011;5609;49.466;8.468;2023-03-14T14:19:12;2.30;;;0.97;;
11111;SDS011;5609;49.466;8.468;2023-03-14T14:21:40;2.50;;;0.53;;
11111;SDS011;5609;49.466;8.468;2023-03-14T14:24:07;2.00;;;0.90;;
11111;SDS011;5609;49.466;8.468;2023-03-14T14:26:39;1.57;;;0.80;;
11111;SDS011;5609;49.466;8.468;2023-03-14T14:29:06;1.63;;;0.90;;
11111;SDS011;5609;49.466;8.468;2023-03-14T14:32:00;2.63;;;0.50;;
11111;SDS011;5609;49.466;8.468;2023-03-14T14:34:28;2.37;;;0.87;;
11111;SDS011;5609;49.466;8.468;2023-03-14T14:36:55;2.07;;;0.83;;
11111;SDS011;5609;49.466;8.468;2023-03-14T14:39:23;2.43;;;0.80;;
11111;SDS011;5609;49.466;8.468;2023-03-14T14:41:51;2.67;;;0.90;;
11111;SDS011;5609;49.466;8.468;2023-03-14T14:44:21;2.20;;;0.80;;
11111;SDS011;5609;49.466;8.468;2023-03-14T14:46:55;2.37;;;0.90;;
11111;SDS011;5609;49.466;8.468;2023-03-14T14:49:28;3.37;;;0.97;;
11111;SDS011;5609;49.466;8.468;2023-03-14T14:52:00;2.27;;;0.70;;
11111;SDS011;5609;49.466;8.468;2023-03-14T14:54:33;2.03;;;0.80;;
11111;SDS011;5609;49.466;8.468;2023-03-14T14:57:03;1.33;;;0.63;;
11111;SDS011;5609;49.466;8.468;2023-03-14T14:59:32;1.87;;;0.70;;
11111;SDS011;5609;49.466;8.468;2023-03-14T15:02:10;1.17;;;0.70;;
11111;SDS011;5609;49.466;8.468;2023-03-14T15:04:52;1.23;;;0.70;;
11111;SDS011;5609;49.466;8.468;2023-03-14T15:07:19;1.93;;;0.77;;
11111;SDS011;5609;49.466;8.468;2023-03-14T15:09:45;1.63;;;0.90;;
11111;SDS011;5609;49.466;8.468;2023-03-14T15:12:12;2.83;;;0.60;;
11111;SDS011;5609;49.466;8.468;2023-03-14T15:14:39;0.80;;;0.60;;
11111;SDS011;5609;49.466;8.468;2023-03-14T15:17:08;2.33;;;0.90;;
11111;SDS011;5609;49.466;8.468;2023-03-14T15:19:36;1.27;;;0.60;;
11111;SDS011;5609;49.466;8.468;2023-03-14T15:22:07;1.80;;;0.57;;
11111;SDS011;5609;49.466;8.468;2023-03-14T15:24:37;2.30;;;0.97;;
11111;SDS011;5609;49.466;8.468;2023-03-14T15:27:04;2.27;;;0.80;;
11111;SDS011;5609;49.466;8.468;2023-03-14T15:29:37;2.53;;;0.73;;